sensor_id;sensor_type;location;lat;lon;timestamp;P1;durP1;ratioP1;P2;durP2;ratioP2
2874;SDS011;1445;52.600;13.328;2022-08-04T00:00:08;6.63;;;5.30;;
2874;SDS011;1445;52.600;13.328;2022-08-04T00:08:49;6.80;;;5.38;;
2874;SDS011;1445;52.600;13.328;2022-08-04T00:11:22;5.72;;;5.20;;
2874;SDS011;1445;52.600;13.328;2022-08-04T00:13:55;5.30;;;4.82;;
2874;SDS011;1445;52.600;13.328;2022-08-04T00:16:24;5.80;;;4.95;;
2874;SDS011;1445;52.600;13.328;2022-08-04T00:19:04;5.93;;;5.03;;
2874;SDS011;1445;52.600;13.328;2022-08-04T00:21:50;6.93;;;4.88;;
2874;SDS011;1445;52.600;13.328;2022-08-04T00:24:23;5.43;;;4.75;;
2874;SDS011;1445;52.600;13.328;2022-08-04T00:26:51;5.28;;;4.78;;
2874;SDS011;1445;52.600;13.328;2022-08-04T00:29:18;5.50;;;5.00;;
2874;SDS011;1445;52.600;13.328;2022-08-04T00:31:43;5.65;;;4.93;;
2874;SDS011;1445;52.600;13.328;2022-08-04T00:34:10;6.35;;;4.90;;
2874;SDS011;1445;52.600;13.328;2022-08-04T00:36:39;5.43;;;4.93;;
2874;SDS011;1445;52.600;13.328;2022-08-04T00:39:07;5.63;;;5.07;;
2874;SDS011;1445;52.600;13.328;2022-08-04T00:47:30;5.88;;;5.28;;
2874;SDS011;1445;52.600;13.328;2022-08-04T00:52:32;5.90;;;5.13;;
2874;SDS011;1445;52.600;13.328;2022-08-04T01:00:17;5.40;;;4.90;;
2874;SDS011;1445;52.600;13.328;2022-08-04T01:02:50;5.45;;;4.82;;
2874;SDS011;1445;52.600;13.328;2022-08-04T01:05:25;5.38;;;4.88;;
2874;SDS011;1445;52.600;13.328;2022-08-04T01:13:35;6.27;;;5.33;;
2874;SDS011;1445;52.600;13.328;2022-08-04T01:16:05;7.53;;;4.80;;
2874;SDS011;1445;52.600;13.328;2022-08-04T01:18:33;5.88;;;4.80;;
2874;SDS011;1445;52.600;13.328;2022-08-04T01:29:16;6.38;;;5.10;;
2874;SDS011;1445;52.600;13.328;2022-08-04T01:32:06;6.38;;;4.93;;
2874;SDS011;1445;52.600;13.328;2022-08-04T01:39:59;5.60;;;5.10;;
2874;SDS011;1445;52.600;13.328;2022-08-04T01:42:28;6.07;;;5.35;;
2874;SDS011;1445;52.600;13.328;2022-08-04T01:44:56;5.35;;;4.88;;
2874;SDS011;1445;52.600;13.328;2022-08-04T01:47:24;6.57;;;5.78;;
2874;SDS011;1445;52.600;13.328;2022-08-04T01:49:53;6.82;;;5.28;;
2874;SDS011;1445;52.600;13.328;2022-08-04T01:52:25;5.22;;;4.82;;
2874;SDS011;1445;52.600;13.328;2022-08-04T01:54:52;6.22;;;5.32;;
2874;SDS011;1445;52.600;13.328;2022-08-04T01:57:19;7.25;;;5.00;;
2874;SDS011;1445;52.600;13.328;2022-08-04T01:59:48;5.80;;;5.20;;
2874;SDS011;1445;52.600;13.328;2022-08-04T02:02:15;7.15;;;5.55;;
2874;SDS011;1445;52.600;13.328;2022-08-04T02:04:41;5.97;;;5.38;;
2874;SDS011;1445;52.600;13.328;2022-08-04T02:10:01;5.68;;;5.03;;
2874;SDS011;1445;52.600;13.328;2022-08-04T02:12:38;5.18;;;4.78;;
2874;SDS011;1445;52.600;13.328;2022-08-04T02:15:29;8.98;;;5.40;;
2874;SDS011;1445;52.600;13.328;2022-08-04T02:20:38;5.88;;;5.38;;
2874;SDS011;1445;52.600;13.328;2022-08-04T02:23:09;5.95;;;5.45;;
2874;SDS011;1445;52.600;13.328;2022-08-04T02:25:40;8.82;;;5.53;;
2874;SDS011;1445;52.600;13.328;2022-08-04T02:30:39;6.05;;;5.10;;
2874;SDS011;1445;52.600;13.328;2022-08-04T02:33:12;6.10;;;5.50;;
2874;SDS011;1445;52.600;13.328;2022-08-04T02:35:41;5.80;;;5.20;;
2874;SDS011;1445;52.600;13.328;2022-08-04T02:38:23;5.72;;;5.13;;
2874;SDS011;1445;52.600;13.328;2022-08-04T02:41:05;5.38;;;4.88;;
2874;SDS011;1445;52.600;13.328;2022-08-04T02:43:33;6.03;;;5.15;;
2874;SDS011;1445;52.600;13.328;2022-08-04T02:46:00;5.25;;;4.80;;
2874;SDS011;1445;52.600;13.328;2022-08-04T02:48:27;6.00;;;5.22;;
2874;SDS011;1445;52.600;13.328;2022-08-04T02:50:55;5.75;;;5.15;;
2874;SDS011;1445;52.600;13.328;2022-08-04T02:53:23;6.10;;;5.50;;
2874;SDS011;1445;52.600;13.328;2022-08-04T02:55:50;6.05;;;5.47;;
2874;SDS011;1445;52.600;13.328;2022-08-04T02:58:18;6.72;;;4.78;;
2874;SDS011;1445;52.600;13.328;2022-08-04T03:00:45;5.88;;;5.28;;
2874;SDS011;1445;52.600;13.328;2022-08-04T03:03:19;7.43;;;5.05;;
2874;SDS011;1445;52.600;13.328;2022-08-04T03:17:58;6.68;;;5.65;;
2874;SDS011;1445;52.600;13.328;2022-08-04T03:21:01;5.38;;;4.97;;
2874;SDS011;1445;52.600;13.328;2022-08-04T03:29:20;6.03;;;5.43;;
2874;SDS011;1445;52.600;13.328;2022-08-04T03:32:12;6.03;;;5.05;;
2874;SDS011;1445;52.600;13.328;2022-08-04T03:37:58;6.55;;;5.55;;
2874;SDS011;1445;52.600;13.328;2022-08-04T04:00:39;6.28;;;5.40;;
2874;SDS011;1445;52.600;13.328;2022-08-04T04:14:11;7.65;;;5.47;;
2874;SDS011;1445;52.600;13.328;2022-08-04T04:16:57;6.60;;;5.88;;
2874;SDS011;1445;52.600;13.328;2022-08-04T04:25:03;6.63;;;5.60;;
2874;SDS011;1445;52.600;13.328;2022-08-04T04:39:31;7.30;;;6.60;;
2874;SDS011;1445;52.600;13.328;2022-08-04T04:42:10;7.70;;;6.30;;
2874;SDS011;1445;52.600;13.328;2022-08-04T04:44:54;7.90;;;6.43;;
2874;SDS011;1445;52.600;13.328;2022-08-04T04:50:13;7.53;;;5.97;;
2874;SDS011;1445;52.600;13.328;2022-08-04T04:52:55;7.75;;;6.03;;
2874;SDS011;1445;52.600;13.328;2022-08-04T04:55:28;7.43;;;6.22;;
2874;SDS011;1445;52.600;13.328;2022-08-04T04:57:59;8.40;;;6.70;;
2874;SDS011;1445;52.600;13.328;2022-08-04T05:14:43;8.38;;;5.95;;
2874;SDS011;1445;52.600;13.328;2022-08-04T05:17:17;7.28;;;5.85;;
2874;SDS011;1445;52.600;13.328;2022-08-04T05:22:51;7.18;;;6.47;;
2874;SDS011;1445;52.600;13.328;2022-08-04T05:30:34;7.68;;;6.68;;
2874;SDS011;1445;52.600;13.328;2022-08-04T05:33:06;7.72;;;6.60;;
2874;SDS011;1445;52.600;13.328;2022-08-04T05:35:36;8.77;;;7.13;;
2874;SDS011;1445;52.600;13.328;2022-08-04T05:38:06;7.38;;;6.22;;
2874;SDS011;1445;52.600;13.328;2022-08-04T05:40:36;8.07;;;6.78;;
2874;SDS011;1445;52.600;13.328;2022-08-04T05:43:03;8.30;;;7.13;;
2874;SDS011;1445;52.600;13.328;2022-08-04T05:45:31;8.32;;;6.95;;
2874;SDS011;1445;52.600;13.328;2022-08-04T05:48:01;10.05;;;6.93;;
2874;SDS011;1445;52.600;13.328;2022-08-04T05:50:29;8.48;;;6.80;;
2874;SDS011;1445;52.600;13.328;2022-08-04T05:52:56;7.55;;;6.82;;
2874;SDS011;1445;52.600;13.328;2022-08-04T05:55:23;8.25;;;7.43;;
2874;SDS011;1445;52.600;13.328;2022-08-04T05:57:50;9.93;;;7.50;;
2874;SDS011;1445;52.600;13.328;2022-08-04T06:00:16;13.20;;;7.80;;
2874;SDS011;1445;52.600;13.328;2022-08-04T06:02:43;10.95;;;7.18;;
2874;SDS011;1445;52.600;13.328;2022-08-04T06:05:11;12.38;;;7.60;;
2874;SDS011;1445;52.600;13.328;2022-08-04T06:07:39;10.32;;;7.15;;
2874;SDS011;1445;52.600;13.328;2022-08-04T06:10:05;8.15;;;7.05;;
2874;SDS011;1445;52.600;13.328;2022-08-04T06:12:35;8.18;;;6.97;;
2874;SDS011;1445;52.600;13.328;2022-08-04T06:15:02;7.32;;;6.43;;
2874;SDS011;1445;52.600;13.328;2022-08-04T06:17:32;13.88;;;7.18;;
2874;SDS011;1445;52.600;13.328;2022-08-04T06:20:02;9.93;;;6.65;;
2874;SDS011;1445;52.600;13.328;2022-08-04T06:22:30;9.07;;;7.25;;
2874;SDS011;1445;52.600;13.328;2022-08-04T06:24:58;11.10;;;6.90;;
2874;SDS011;1445;52.600;13.328;2022-08-04T06:27:27;8.32;;;6.55;;
2874;SDS011;1445;52.600;13.328;2022-08-04T06:29:54;8.23;;;6.95;;
2874;SDS011;1445;52.600;13.328;2022-08-04T06:32:22;9.68;;;6.47;;
2874;SDS011;1445;52.600;13.328;2022-08-04T06:34:58;8.02;;;6.13;;
2874;SDS011;1445;52.600;13.328;2022-08-04T06:37:26;9.70;;;6.32;;
2874;SDS011;1445;52.600;13.328;2022-08-04T06:39:52;13.38;;;6.20;;
2874;SDS011;1445;52.600;13.328;2022-08-04T06:42:20;6.60;;;6.00;;
2874;SDS011;1445;52.600;13.328;2022-08-04T06:44:48;7.68;;;5.82;;
2874;SDS011;1445;52.600;13.328;2022-08-04T06:47:16;6.50;;;5.60;;
2874;SDS011;1445;52.600;13.328;2022-08-04T06:49:46;7.13;;;5.88;;
2874;SDS011;1445;52.600;13.328;2022-08-04T06:52:13;9.55;;;5.60;;
2874;SDS011;1445;52.600;13.328;2022-08-04T06:54:51;5.82;;;5.25;;
2874;SDS011;1445;52.600;13.328;2022-08-04T06:57:17;6.00;;;5.40;;
2874;SDS011;1445;52.600;13.328;2022-08-04T06:59:46;7.78;;;5.35;;
2874;SDS011;1445;52.600;13.328;2022-08-04T07:02:21;6.97;;;5.85;;
2874;SDS011;1445;52.600;13.328;2022-08-04T07:04:50;9.30;;;5.90;;
2874;SDS011;1445;52.600;13.328;2022-08-04T07:07:16;7.75;;;5.20;;
2874;SDS011;1445;52.600;13.328;2022-08-04T07:09:42;8.35;;;5.60;;
2874;SDS011;1445;52.600;13.328;2022-08-04T07:12:08;9.15;;;5.60;;
2874;SDS011;1445;52.600;13.328;2022-08-04T07:14:35;11.00;;;5.57;;
2874;SDS011;1445;52.600;13.328;2022-08-04T07:17:04;6.28;;;5.68;;
2874;SDS011;1445;52.600;13.328;2022-08-04T07:19:31;8.35;;;5.53;;
2874;SDS011;1445;52.600;13.328;2022-08-04T07:22:01;9.88;;;5.07;;
2874;SDS011;1445;52.600;13.328;2022-08-04T07:24:31;6.63;;;5.10;;
2874;SDS011;1445;52.600;13.328;2022-08-04T07:26:58;12.10;;;5.60;;
2874;SDS011;1445;52.600;13.328;2022-08-04T07:29:24;9.45;;;5.28;;
2874;SDS011;1445;52.600;13.328;2022-08-04T07:31:50;5.65;;;5.15;;
2874;SDS011;1445;52.600;13.328;2022-08-04T07:34:15;8.43;;;4.93;;
2874;SDS011;1445;52.600;13.328;2022-08-04T07:36:43;7.22;;;5.15;;
2874;SDS011;1445;52.600;13.328;2022-08-04T07:39:08;8.63;;;5.60;;
2874;SDS011;1445;52.600;13.328;2022-08-04T07:41:34;6.85;;;5.60;;
2874;SDS011;1445;52.600;13.328;2022-08-04T07:44:00;8.38;;;5.43;;
2874;SDS011;1445;52.600;13.328;2022-08-04T07:46:27;6.80;;;4.82;;
2874;SDS011;1445;52.600;13.328;2022-08-04T07:48:53;10.18;;;5.07;;
2874;SDS011;1445;52.600;13.328;2022-08-04T07:51:19;7.35;;;5.40;;
2874;SDS011;1445;52.600;13.328;2022-08-04T07:53:45;8.45;;;4.80;;
2874;SDS011;1445;52.600;13.328;2022-08-04T07:56:12;8.30;;;5.05;;
2874;SDS011;1445;52.600;13.328;2022-08-04T07:58:39;6.82;;;4.82;;
2874;SDS011;1445;52.600;13.328;2022-08-04T08:01:04;9.02;;;5.22;;
2874;SDS011;1445;52.600;13.328;2022-08-04T08:03:30;6.88;;;4.70;;
2874;SDS011;1445;52.600;13.328;2022-08-04T08:05:55;7.07;;;4.70;;
2874;SDS011;1445;52.600;13.328;2022-08-04T08:08:21;6.45;;;4.70;;
2874;SDS011;1445;52.600;13.328;2022-08-04T08:10:46;8.38;;;4.65;;
2874;SDS011;1445;52.600;13.328;2022-08-04T08:13:12;4.43;;;4.03;;
2874;SDS011;1445;52.600;13.328;2022-08-04T08:15:39;4.80;;;3.83;;
2874;SDS011;1445;52.600;13.328;2022-08-04T08:18:07;5.53;;;4.10;;
2874;SDS011;1445;52.600;13.328;2022-08-04T08:20:33;4.95;;;3.75;;
2874;SDS011;1445;52.600;13.328;2022-08-04T08:22:59;4.70;;;3.75;;
2874;SDS011;1445;52.600;13.328;2022-08-04T08:25:28;7.22;;;4.50;;
2874;SDS011;1445;52.600;13.328;2022-08-04T08:27:54;6.63;;;4.00;;
2874;SDS011;1445;52.600;13.328;2022-08-04T08:30:20;4.80;;;4.20;;
2874;SDS011;1445;52.600;13.328;2022-08-04T08:32:45;10.40;;;5.45;;
2874;SDS011;1445;52.600;13.328;2022-08-04T08:35:11;7.20;;;4.40;;
2874;SDS011;1445;52.600;13.328;2022-08-04T08:37:37;7.05;;;4.45;;
2874;SDS011;1445;52.600;13.328;2022-08-04T08:40:12;7.25;;;4.55;;
2874;SDS011;1445;52.600;13.328;2022-08-04T08:42:58;8.25;;;4.38;;
2874;SDS011;1445;52.600;13.328;2022-08-04T08:48:08;5.30;;;3.88;;
2874;SDS011;1445;52.600;13.328;2022-08-04T08:56:24;6.72;;;4.00;;
2874;SDS011;1445;52.600;13.328;2022-08-04T08:59:25;4.65;;;4.05;;
2874;SDS011;1445;52.600;13.328;2022-08-04T09:10:52;5.22;;;3.95;;
2874;SDS011;1445;52.600;13.328;2022-08-04T09:13:25;7.25;;;4.05;;
2874;SDS011;1445;52.600;13.328;2022-08-04T09:16:16;6.40;;;4.00;;
2874;SDS011;1445;52.600;13.328;2022-08-04T09:24:46;4.07;;;3.00;;
2874;SDS011;1445;52.600;13.328;2022-08-04T09:27:53;4.32;;;2.95;;
2874;SDS011;1445;52.600;13.328;2022-08-04T09:40:50;5.88;;;3.53;;
2874;SDS011;1445;52.600;13.328;2022-08-04T09:48:51;5.18;;;2.97;;
2874;SDS011;1445;52.600;13.328;2022-08-04T09:56:40;3.10;;;2.22;;
2874;SDS011;1445;52.600;13.328;2022-08-04T09:59:17;4.63;;;2.80;;
2874;SDS011;1445;52.600;13.328;2022-08-04T10:01:46;3.13;;;2.53;;
2874;SDS011;1445;52.600;13.328;2022-08-04T10:04:17;5.80;;;2.60;;
2874;SDS011;1445;52.600;13.328;2022-08-04T10:06:54;3.95;;;2.58;;
2874;SDS011;1445;52.600;13.328;2022-08-04T10:09:42;4.93;;;2.30;;
2874;SDS011;1445;52.600;13.328;2022-08-04T10:17:25;2.85;;;2.65;;
2874;SDS011;1445;52.600;13.328;2022-08-04T10:20:00;4.72;;;2.95;;
2874;SDS011;1445;52.600;13.328;2022-08-04T10:22:38;3.22;;;2.47;;
2874;SDS011;1445;52.600;13.328;2022-08-04T10:25:14;4.72;;;2.90;;
2874;SDS011;1445;52.600;13.328;2022-08-04T10:27:45;5.32;;;2.85;;
2874;SDS011;1445;52.600;13.328;2022-08-04T10:30:15;3.47;;;3.20;;
2874;SDS011;1445;52.600;13.328;2022-08-04T10:35:18;3.70;;;2.92;;
2874;SDS011;1445;52.600;13.328;2022-08-04T10:40:43;4.60;;;2.97;;
2874;SDS011;1445;52.600;13.328;2022-08-04T10:43:15;5.18;;;3.20;;
2874;SDS011;1445;52.600;13.328;2022-08-04T10:45:45;4.50;;;3.33;;
2874;SDS011;1445;52.600;13.328;2022-08-04T10:51:10;5.10;;;2.90;;
2874;SDS011;1445;52.600;13.328;2022-08-04T10:53:35;5.72;;;3.45;;
2874;SDS011;1445;52.600;13.328;2022-08-04T10:56:17;3.13;;;2.83;;
2874;SDS011;1445;52.600;13.328;2022-08-04T10:58:58;3.97;;;3.20;;
2874;SDS011;1445;52.600;13.328;2022-08-04T11:01:30;7.32;;;2.85;;
2874;SDS011;1445;52.600;13.328;2022-08-04T11:04:00;5.07;;;3.00;;
2874;SDS011;1445;52.600;13.328;2022-08-04T11:06:32;3.40;;;3.10;;
2874;SDS011;1445;52.600;13.328;2022-08-04T11:08:59;5.15;;;3.22;;
2874;SDS011;1445;52.600;13.328;2022-08-04T11:11:31;3.72;;;2.90;;
2874;SDS011;1445;52.600;13.328;2022-08-04T11:14:11;4.45;;;3.00;;
2874;SDS011;1445;52.600;13.328;2022-08-04T11:33:39;2.95;;;2.65;;
2874;SDS011;1445;52.600;13.328;2022-08-04T11:42:04;3.50;;;2.50;;
2874;SDS011;1445;52.600;13.328;2022-08-04T11:44:48;5.35;;;2.70;;
2874;SDS011;1445;52.600;13.328;2022-08-04T11:50:04;3.35;;;2.80;;
2874;SDS011;1445;52.600;13.328;2022-08-04T11:52:34;3.08;;;2.78;;
2874;SDS011;1445;52.600;13.328;2022-08-04T11:55:04;4.70;;;2.50;;
2874;SDS011;1445;52.600;13.328;2022-08-04T11:57:32;4.45;;;2.63;;
2874;SDS011;1445;52.600;13.328;2022-08-04T11:59:59;4.25;;;2.70;;
2874;SDS011;1445;52.600;13.328;2022-08-04T12:05:40;3.40;;;3.10;;
2874;SDS011;1445;52.600;13.328;2022-08-04T12:16:44;4.45;;;2.78;;
2874;SDS011;1445;52.600;13.328;2022-08-04T12:20:02;4.28;;;2.90;;
2874;SDS011;1445;52.600;13.328;2022-08-04T12:22:10;3.13;;;2.90;;
2874;SDS011;1445;52.600;13.328;2022-08-04T12:24:42;6.60;;;2.90;;
2874;SDS011;1445;52.600;13.328;2022-08-04T12:27:17;2.90;;;2.70;;
2874;SDS011;1445;52.600;13.328;2022-08-04T12:29:46;3.60;;;2.88;;
2874;SDS011;1445;52.600;13.328;2022-08-04T12:32:15;9.45;;;2.90;;
2874;SDS011;1445;52.600;13.328;2022-08-04T12:35:31;3.50;;;2.50;;
2874;SDS011;1445;52.600;13.328;2022-08-04T12:40:56;2.72;;;2.25;;
2874;SDS011;1445;52.600;13.328;2022-08-04T12:43:42;4.30;;;2.65;;
2874;SDS011;1445;52.600;13.328;2022-08-04T12:46:09;3.45;;;3.00;;
2874;SDS011;1445;52.600;13.328;2022-08-04T12:48:36;3.28;;;2.70;;
2874;SDS011;1445;52.600;13.328;2022-08-04T12:51:04;3.90;;;2.90;;
2874;SDS011;1445;52.600;13.328;2022-08-04T12:53:38;2.92;;;2.63;;
2874;SDS011;1445;52.600;13.328;2022-08-04T12:56:05;2.72;;;2.40;;
2874;SDS011;1445;52.600;13.328;2022-08-04T12:58:35;3.95;;;3.50;;
2874;SDS011;1445;52.600;13.328;2022-08-04T13:01:04;3.83;;;3.00;;
2874;SDS011;1445;52.600;13.328;2022-08-04T13:06:17;4.13;;;3.72;;
2874;SDS011;1445;52.600;13.328;2022-08-04T13:08:50;3.75;;;3.33;;
2874;SDS011;1445;52.600;13.328;2022-08-04T13:11:17;3.70;;;3.40;;
2874;SDS011;1445;52.600;13.328;2022-08-04T13:13:45;3.58;;;2.45;;
2874;SDS011;1445;52.600;13.328;2022-08-04T13:16:15;4.00;;;2.50;;
2874;SDS011;1445;52.600;13.328;2022-08-04T13:18:45;6.90;;;3.50;;
2874;SDS011;1445;52.600;13.328;2022-08-04T13:21:19;3.92;;;2.85;;
2874;SDS011;1445;52.600;13.328;2022-08-04T13:23:46;3.42;;;2.20;;
2874;SDS011;1445;52.600;13.328;2022-08-04T13:26:14;3.78;;;2.50;;
2874;SDS011;1445;52.600;13.328;2022-08-04T13:28:46;3.97;;;2.50;;
2874;SDS011;1445;52.600;13.328;2022-08-04T13:31:19;4.43;;;4.03;;
2874;SDS011;1445;52.600;13.328;2022-08-04T13:33:50;6.35;;;5.50;;
2874;SDS011;1445;52.600;13.328;2022-08-04T13:36:18;4.47;;;3.92;;
2874;SDS011;1445;52.600;13.328;2022-08-04T13:38:49;5.88;;;4.45;;
2874;SDS011;1445;52.600;13.328;2022-08-04T13:41:17;6.20;;;3.67;;
2874;SDS011;1445;52.600;13.328;2022-08-04T13:43:48;2.83;;;2.53;;
2874;SDS011;1445;52.600;13.328;2022-08-04T13:46:19;2.67;;;2.40;;
2874;SDS011;1445;52.600;13.328;2022-08-04T13:48:49;4.30;;;2.83;;
2874;SDS011;1445;52.600;13.328;2022-08-04T13:51:16;7.57;;;6.28;;
2874;SDS011;1445;52.600;13.328;2022-08-04T13:53:43;9.85;;;8.20;;
2874;SDS011;1445;52.600;13.328;2022-08-04T13:56:09;7.00;;;5.55;;
2874;SDS011;1445;52.600;13.328;2022-08-04T13:58:40;3.05;;;2.85;;
2874;SDS011;1445;52.600;13.328;2022-08-04T14:01:18;3.95;;;2.47;;
2874;SDS011;1445;52.600;13.328;2022-08-04T14:06:27;5.75;;;4.60;;
2874;SDS011;1445;52.600;13.328;2022-08-04T14:09:09;6.43;;;4.95;;
2874;SDS011;1445;52.600;13.328;2022-08-04T14:11:42;18.83;;;5.28;;
2874;SDS011;1445;52.600;13.328;2022-08-04T14:16:54;3.25;;;2.80;;
2874;SDS011;1445;52.600;13.328;2022-08-04T14:19:21;3.70;;;2.92;;
2874;SDS011;1445;52.600;13.328;2022-08-04T14:21:46;7.05;;;6.13;;
2874;SDS011;1445;52.600;13.328;2022-08-04T14:24:12;7.70;;;6.90;;
2874;SDS011;1445;52.600;13.328;2022-08-04T14:26:48;9.05;;;8.05;;
2874;SDS011;1445;52.600;13.328;2022-08-04T14:29:14;6.68;;;4.45;;
2874;SDS011;1445;52.600;13.328;2022-08-04T14:31:41;7.07;;;4.22;;
2874;SDS011;1445;52.600;13.328;2022-08-04T14:34:22;5.28;;;3.70;;
2874;SDS011;1445;52.600;13.328;2022-08-04T14:36:49;6.00;;;3.65;;
2874;SDS011;1445;52.600;13.328;2022-08-04T14:39:14;4.15;;;3.40;;
2874;SDS011;1445;52.600;13.328;2022-08-04T14:41:46;2.53;;;2.33;;
2874;SDS011;1445;52.600;13.328;2022-08-04T14:44:14;4.13;;;2.88;;
2874;SDS011;1445;52.600;13.328;2022-08-04T14:46:53;7.75;;;4.75;;
2874;SDS011;1445;52.600;13.328;2022-08-04T14:49:20;6.85;;;6.18;;
2874;SDS011;1445;52.600;13.328;2022-08-04T14:51:53;9.00;;;8.10;;
2874;SDS011;1445;52.600;13.328;2022-08-04T14:54:25;4.93;;;4.45;;
2874;SDS011;1445;52.600;13.328;2022-08-04T14:56:56;6.22;;;4.82;;
2874;SDS011;1445;52.600;13.328;2022-08-04T14:59:26;6.03;;;5.47;;
2874;SDS011;1445;52.600;13.328;2022-08-04T15:01:52;6.75;;;5.30;;
2874;SDS011;1445;52.600;13.328;2022-08-04T15:04:20;5.50;;;3.70;;
2874;SDS011;1445;52.600;13.328;2022-08-04T15:06:48;4.03;;;3.63;;
2874;SDS011;1445;52.600;13.328;2022-08-04T15:09:14;5.18;;;4.72;;
2874;SDS011;1445;52.600;13.328;2022-08-04T15:11:40;5.35;;;4.85;;
2874;SDS011;1445;52.600;13.328;2022-08-04T15:14:06;4.93;;;4.47;;
2874;SDS011;1445;52.600;13.328;2022-08-04T15:16:32;4.80;;;4.30;;
2874;SDS011;1445;52.600;13.328;2022-08-04T15:18:58;6.95;;;5.30;;
2874;SDS011;1445;52.600;13.328;2022-08-04T15:21:25;6.75;;;5.90;;
2874;SDS011;1445;52.600;13.328;2022-08-04T15:23:53;6.47;;;5.85;;
2874;SDS011;1445;52.600;13.328;2022-08-04T15:29:17;7.53;;;4.82;;
2874;SDS011;1445;52.600;13.328;2022-08-04T15:31:47;2.67;;;2.47;;
2874;SDS011;1445;52.600;13.328;2022-08-04T15:34:14;3.28;;;2.35;;
2874;SDS011;1445;52.600;13.328;2022-08-04T15:36:46;3.65;;;2.30;;
2874;SDS011;1445;52.600;13.328;2022-08-04T15:49:23;4.97;;;3.92;;
2874;SDS011;1445;52.600;13.328;2022-08-04T15:52:01;4.45;;;4.03;;
2874;SDS011;1445;52.600;13.328;2022-08-04T15:54:29;6.40;;;5.57;;
2874;SDS011;1445;52.600;13.328;2022-08-04T15:56:55;5.25;;;4.10;;
2874;SDS011;1445;52.600;13.328;2022-08-04T16:12:56;5.63;;;3.70;;
2874;SDS011;1445;52.600;13.328;2022-08-04T16:15:35;3.78;;;3.10;;
2874;SDS011;1445;52.600;13.328;2022-08-04T16:20:55;5.93;;;4.75;;
2874;SDS011;1445;52.600;13.328;2022-08-04T16:26:02;6.18;;;5.60;;
2874;SDS011;1445;52.600;13.328;2022-08-04T16:31:02;8.00;;;7.20;;
2874;SDS011;1445;52.600;13.328;2022-08-04T16:33:29;7.63;;;6.65;;
2874;SDS011;1445;52.600;13.328;2022-08-04T16:35:55;6.28;;;5.68;;
2874;SDS011;1445;52.600;13.328;2022-08-04T16:38:22;5.28;;;4.55;;
2874;SDS011;1445;52.600;13.328;2022-08-04T16:40:58;4.93;;;4.43;;
2874;SDS011;1445;52.600;13.328;2022-08-04T16:43:28;5.10;;;4.45;;
2874;SDS011;1445;52.600;13.328;2022-08-04T16:45:58;6.28;;;5.50;;
2874;SDS011;1445;52.600;13.328;2022-08-04T16:48:25;6.57;;;5.90;;
2874;SDS011;1445;52.600;13.328;2022-08-04T16:53:25;7.88;;;6.80;;
2874;SDS011;1445;52.600;13.328;2022-08-04T16:55:53;10.45;;;9.43;;
2874;SDS011;1445;52.600;13.328;2022-08-04T16:58:24;7.32;;;6.22;;
2874;SDS011;1445;52.600;13.328;2022-08-04T17:00:57;7.82;;;6.80;;
2874;SDS011;1445;52.600;13.328;2022-08-04T17:03:30;6.25;;;5.28;;
2874;SDS011;1445;52.600;13.328;2022-08-04T17:06:09;9.90;;;5.80;;
2874;SDS011;1445;52.600;13.328;2022-08-04T17:08:37;7.47;;;5.95;;
2874;SDS011;1445;52.600;13.328;2022-08-04T17:11:03;9.90;;;6.28;;
2874;SDS011;1445;52.600;13.328;2022-08-04T17:13:35;7.65;;;5.80;;
2874;SDS011;1445;52.600;13.328;2022-08-04T17:16:01;8.27;;;5.88;;
2874;SDS011;1445;52.600;13.328;2022-08-04T17:18:36;5.20;;;3.00;;
2874;SDS011;1445;52.600;13.328;2022-08-04T17:21:05;2.90;;;2.70;;
2874;SDS011;1445;52.600;13.328;2022-08-04T17:23:43;4.20;;;2.70;;
2874;SDS011;1445;52.600;13.328;2022-08-04T17:26:12;2.42;;;2.22;;
2874;SDS011;1445;52.600;13.328;2022-08-04T17:28:40;2.42;;;2.00;;
2874;SDS011;1445;52.600;13.328;2022-08-04T17:31:10;4.47;;;2.30;;
2874;SDS011;1445;52.600;13.328;2022-08-04T17:33:39;3.60;;;2.25;;
2874;SDS011;1445;52.600;13.328;2022-08-04T17:36:09;4.10;;;2.08;;
2874;SDS011;1445;52.600;13.328;2022-08-04T17:41:10;4.15;;;2.10;;
2874;SDS011;1445;52.600;13.328;2022-08-04T17:46:26;3.00;;;1.90;;
2874;SDS011;1445;52.600;13.328;2022-08-04T17:49:02;2.65;;;1.90;;
2874;SDS011;1445;52.600;13.328;2022-08-04T17:56:57;3.92;;;2.20;;
2874;SDS011;1445;52.600;13.328;2022-08-04T17:59:28;6.53;;;2.28;;
2874;SDS011;1445;52.600;13.328;2022-08-04T18:02:07;2.85;;;2.15;;
2874;SDS011;1445;52.600;13.328;2022-08-04T18:04:47;4.53;;;1.92;;
2874;SDS011;1445;52.600;13.328;2022-08-04T18:07:20;2.95;;;1.85;;
2874;SDS011;1445;52.600;13.328;2022-08-04T18:15:05;3.50;;;2.28;;
2874;SDS011;1445;52.600;13.328;2022-08-04T18:17:38;2.33;;;1.88;;
2874;SDS011;1445;52.600;13.328;2022-08-04T18:20:12;3.05;;;2.30;;
2874;SDS011;1445;52.600;13.328;2022-08-04T18:22:39;2.83;;;2.03;;
2874;SDS011;1445;52.600;13.328;2022-08-04T18:25:09;2.55;;;2.08;;
2874;SDS011;1445;52.600;13.328;2022-08-04T18:27:47;2.42;;;2.08;;
2874;SDS011;1445;52.600;13.328;2022-08-04T18:30:14;4.63;;;2.45;;
2874;SDS011;1445;52.600;13.328;2022-08-04T18:32:40;2.75;;;2.30;;
2874;SDS011;1445;52.600;13.328;2022-08-04T18:35:06;3.80;;;2.15;;
2874;SDS011;1445;52.600;13.328;2022-08-04T18:37:32;3.83;;;2.20;;
2874;SDS011;1445;52.600;13.328;2022-08-04T18:39:59;4.18;;;3.03;;
2874;SDS011;1445;52.600;13.328;2022-08-04T18:42:24;5.13;;;2.28;;
2874;SDS011;1445;52.600;13.328;2022-08-04T18:44:51;4.25;;;2.80;;
2874;SDS011;1445;52.600;13.328;2022-08-04T18:47:22;5.30;;;2.42;;
2874;SDS011;1445;52.600;13.328;2022-08-04T18:49:51;4.40;;;2.30;;
2874;SDS011;1445;52.600;13.328;2022-08-04T18:52:17;3.92;;;2.35;;
2874;SDS011;1445;52.600;13.328;2022-08-04T18:54:42;4.00;;;2.40;;
2874;SDS011;1445;52.600;13.328;2022-08-04T18:57:08;3.78;;;2.55;;
2874;SDS011;1445;52.600;13.328;2022-08-04T18:59:34;3.33;;;2.50;;
2874;SDS011;1445;52.600;13.328;2022-08-04T19:01:59;4.25;;;2.70;;
2874;SDS011;1445;52.600;13.328;2022-08-04T19:04:25;3.95;;;2.58;;
2874;SDS011;1445;52.600;13.328;2022-08-04T19:06:50;4.05;;;2.40;;
2874;SDS011;1445;52.600;13.328;2022-08-04T19:09:16;3.67;;;2.50;;
2874;SDS011;1445;52.600;13.328;2022-08-04T19:11:41;4.00;;;2.72;;
2874;SDS011;1445;52.600;13.328;2022-08-04T19:14:07;3.05;;;2.70;;
2874;SDS011;1445;52.600;13.328;2022-08-04T19:16:32;3.45;;;2.80;;
2874;SDS011;1445;52.600;13.328;2022-08-04T19:18:59;4.13;;;2.85;;
2874;SDS011;1445;52.600;13.328;2022-08-04T19:21:27;4.78;;;2.90;;
2874;SDS011;1445;52.600;13.328;2022-08-04T19:23:53;4.38;;;3.13;;
2874;SDS011;1445;52.600;13.328;2022-08-04T19:26:19;5.43;;;3.00;;
2874;SDS011;1445;52.600;13.328;2022-08-04T19:28:45;5.40;;;3.20;;
2874;SDS011;1445;52.600;13.328;2022-08-04T19:31:10;4.47;;;3.17;;
2874;SDS011;1445;52.600;13.328;2022-08-04T19:33:36;6.47;;;3.30;;
2874;SDS011;1445;52.600;13.328;2022-08-04T19:36:04;3.88;;;3.10;;
2874;SDS011;1445;52.600;13.328;2022-08-04T19:38:30;4.05;;;3.00;;
2874;SDS011;1445;52.600;13.328;2022-08-04T19:40:55;4.72;;;3.20;;
2874;SDS011;1445;52.600;13.328;2022-08-04T19:43:21;4.25;;;3.50;;
2874;SDS011;1445;52.600;13.328;2022-08-04T19:45:46;3.78;;;3.38;;
2874;SDS011;1445;52.600;13.328;2022-08-04T19:48:12;7.63;;;3.55;;
2874;SDS011;1445;52.600;13.328;2022-08-04T19:50:38;4.55;;;3.50;;
2874;SDS011;1445;52.600;13.328;2022-08-04T19:53:03;5.88;;;3.83;;
2874;SDS011;1445;52.600;13.328;2022-08-04T19:55:29;4.78;;;3.83;;
2874;SDS011;1445;52.600;13.328;2022-08-04T19:57:59;4.63;;;3.90;;
2874;SDS011;1445;52.600;13.328;2022-08-04T20:00:27;6.20;;;3.83;;
2874;SDS011;1445;52.600;13.328;2022-08-04T20:02:53;5.97;;;3.90;;
2874;SDS011;1445;52.600;13.328;2022-08-04T20:05:18;5.85;;;4.00;;
2874;SDS011;1445;52.600;13.328;2022-08-04T20:07:47;5.70;;;3.90;;
2874;SDS011;1445;52.600;13.328;2022-08-04T20:10:12;8.80;;;4.22;;
2874;SDS011;1445;52.600;13.328;2022-08-04T20:12:38;5.40;;;3.90;;
2874;SDS011;1445;52.600;13.328;2022-08-04T20:15:04;10.77;;;4.45;;
2874;SDS011;1445;52.600;13.328;2022-08-04T20:17:30;6.03;;;4.47;;
2874;SDS011;1445;52.600;13.328;2022-08-04T20:19:55;6.90;;;4.38;;